createdAt,value
2023-04-08T00:01:51.011Z,6.49
2023-04-08T00:04:28.361Z,6.49
2023-04-08T00:06:58.021Z,6.26
2023-04-08T00:09:27.729Z,6.14
2023-04-08T00:11:58.190Z,6.07
2023-04-08T00:14:38.124Z,6.19
2023-04-08T00:17:08.610Z,6.26
2023-04-08T00:19:51.888Z,6.35
2023-04-08T00:22:20.193Z,6.17
2023-04-08T00:24:51.391Z,6.05
2023-04-08T00:27:25.279Z,6.04
2023-04-08T00:30:00.266Z,5.98
2023-04-08T00:32:29.956Z,5.95
2023-04-08T00:35:00.133Z,6.01
2023-04-08T00:37:31.980Z,6.15
2023-04-08T00:40:02.226Z,6.01
2023-04-08T00:42:33.501Z,6.00
2023-04-08T00:45:06.075Z,6.01
2023-04-08T00:47:39.846Z,5.89
2023-04-08T00:50:17.283Z,5.83
2023-04-08T00:52:50.422Z,6.00
2023-04-08T00:55:21.357Z,5.67
2023-04-08T00:57:58.198Z,5.79
2023-04-08T01:00:46.527Z,5.79
2023-04-08T01:03:22.606Z,5.79
2023-04-08T01:06:00.201Z,5.78
2023-04-08T01:08:32.497Z,5.90
2023-04-08T01:11:07.875Z,5.61
2023-04-08T01:13:40.752Z,5.63
2023-04-08T01:16:20.355Z,5.70
2023-04-08T01:18:59.245Z,5.53
2023-04-08T01:21:32.186Z,5.42
2023-04-08T01:24:21.265Z,5.31
2023-04-08T01:26:54.015Z,5.29
2023-04-08T01:29:22.292Z,5.28
2023-04-08T01:32:00.040Z,5.61
2023-04-08T01:34:31.185Z,5.42
2023-04-08T01:37:01.234Z,5.41
2023-04-08T01:39:31.597Z,5.37
2023-04-08T01:42:08.982Z,5.27
2023-04-08T01:44:38.308Z,5.24
2023-04-08T01:47:06.868Z,5.17
2023-04-08T01:49:35.571Z,5.19
2023-04-08T01:52:18.364Z,5.11
2023-04-08T01:54:48.818Z,4.85
2023-04-08T01:57:29.988Z,5.16
2023-04-08T02:00:05.749Z,4.95
2023-04-08T02:02:55.664Z,5.27
2023-04-08T02:05:27.987Z,5.06
2023-04-08T02:07:56.590Z,5.01
2023-04-08T02:10:26.936Z,5.05
2023-04-08T02:12:59.906Z,5.03
2023-04-08T02:15:33.336Z,5.00
2023-04-08T02:18:08.638Z,5.02
2023-04-08T02:20:40.056Z,4.96
2023-04-08T02:23:12.248Z,5.02
2023-04-08T02:25:42.210Z,4.84
2023-04-08T02:28:14.516Z,4.78
2023-04-08T02:30:45.253Z,4.75
2023-04-08T02:33:19.276Z,4.65
2023-04-08T02:35:50.115Z,4.61
2023-04-08T02:38:35.292Z,4.73
2023-04-08T02:41:04.493Z,4.55
2023-04-08T02:43:35.207Z,4.27
2023-04-08T02:46:08.531Z,4.40
2023-04-08T02:48:38.026Z,4.38
2023-04-08T02:51:08.367Z,4.24
2023-04-08T02:53:37.599Z,4.21
2023-04-08T02:56:16.226Z,4.33
2023-04-08T02:58:53.383Z,4.21
2023-04-08T03:01:24.805Z,4.31
2023-04-08T03:03:53.549Z,3.96
2023-04-08T03:06:27.260Z,4.04
2023-04-08T03:08:56.669Z,4.19
2023-04-08T03:11:24.634Z,4.09
2023-04-08T03:13:54.619Z,4.17
2023-04-08T03:16:33.022Z,4.08
2023-04-08T03:19:03.921Z,4.13
2023-04-08T03:21:33.599Z,4.05
2023-04-08T03:24:03.864Z,3.86
2023-04-08T03:26:35.388Z,4.04
2023-04-08T03:29:11.584Z,3.86
2023-04-08T03:31:53.778Z,3.96
2023-04-08T03:34:24.609Z,4.06
2023-04-08T03:36:53.980Z,3.97
2023-04-08T03:39:22.566Z,3.72
2023-04-08T03:41:52.111Z,3.65
2023-04-08T03:44:26.283Z,3.93
2023-04-08T03:46:55.887Z,3.69
2023-04-08T03:49:24.978Z,3.84
2023-04-08T03:51:56.884Z,3.89
2023-04-08T03:54:26.051Z,3.70
2023-04-08T03:57:04.477Z,3.79
2023-04-08T03:59:37.628Z,3.82
2023-04-08T04:02:07.222Z,3.96
2023-04-08T04:04:38.054Z,3.77
2023-04-08T04:07:13.751Z,3.83
2023-04-08T04:09:45.508Z,3.91
2023-04-08T04:12:17.360Z,3.87
2023-04-08T04:14:52.480Z,3.89
2023-04-08T04:17:23.696Z,3.99
2023-04-08T04:19:54.208Z,4.06
2023-04-08T04:22:22.314Z,3.92
2023-04-08T04:24:55.336Z,3.91
2023-04-08T04:27:24.525Z,4.12
2023-04-08T04:29:57.717Z,3.96
2023-04-08T04:32:29.511Z,3.89
2023-04-08T04:35:00.502Z,3.91
2023-04-08T04:37:29.764Z,3.98
2023-04-08T04:40:00.260Z,3.75
2023-04-08T04:42:31.583Z,3.79
2023-04-08T04:45:08.183Z,3.91
2023-04-08T04:47:37.691Z,3.98
2023-04-08T04:50:14.820Z,4.17
2023-04-08T04:52:46.674Z,4.18
2023-04-08T04:55:16.907Z,3.77
2023-04-08T04:57:46.628Z,4.14
2023-04-08T05:00:17.779Z,4.19
2023-04-08T05:02:47.670Z,3.91
2023-04-08T05:05:16.601Z,4.22
2023-04-08T05:07:48.596Z,4.32
2023-04-08T05:10:19.466Z,4.47
2023-04-08T05:12:49.034Z,4.54
2023-04-08T05:15:41.260Z,4.40
2023-04-08T05:18:18.158Z,4.43
2023-04-08T05:20:47.797Z,4.33
2023-04-08T05:23:26.565Z,4.58
2023-04-08T05:26:03.785Z,4.60
2023-04-08T05:28:32.946Z,4.47
2023-04-08T05:31:06.612Z,4.40
2023-04-08T05:33:37.097Z,4.54
2023-04-08T05:36:06.946Z,4.45
2023-04-08T05:38:38.661Z,4.41
2023-04-08T05:41:10.112Z,4.50
2023-04-08T05:43:38.931Z,4.35
2023-04-08T05:46:14.486Z,4.44
2023-04-08T05:48:44.947Z,4.56
2023-04-08T05:51:18.644Z,4.51
2023-04-08T05:53:47.792Z,4.38
2023-04-08T05:56:19.183Z,4.43
2023-04-08T05:58:51.223Z,4.41
2023-04-08T06:01:23.102Z,4.45
2023-04-08T06:03:52.973Z,4.70
2023-04-08T06:06:22.290Z,4.70
2023-04-08T06:08:52.653Z,4.72
2023-04-08T06:11:22.365Z,4.70
2023-04-08T06:13:52.857Z,4.67
2023-04-08T06:16:25.539Z,4.47
2023-04-08T06:18:59.271Z,4.43
2023-04-08T06:21:27.861Z,4.47
2023-04-08T06:23:56.472Z,4.68
2023-04-08T06:26:27.879Z,4.43
2023-04-08T06:28:58.653Z,4.66
2023-04-08T06:31:29.392Z,4.72
2023-04-08T06:33:59.736Z,4.78
2023-04-08T06:36:29.623Z,4.74
2023-04-08T06:39:05.140Z,4.92
2023-04-08T06:41:40.644Z,4.71
2023-04-08T06:44:25.086Z,4.81
2023-04-08T06:46:58.429Z,4.81
2023-04-08T06:49:28.893Z,4.74
2023-04-08T06:51:58.220Z,4.77
2023-04-08T06:54:27.524Z,4.99
2023-04-08T06:57:05.991Z,5.17
2023-04-08T06:59:38.024Z,4.94
2023-04-08T07:02:11.474Z,4.89
2023-04-08T07:04:45.519Z,4.96
2023-04-08T07:07:19.670Z,4.87
2023-04-08T07:09:48.781Z,5.16
2023-04-08T07:12:20.345Z,5.23
2023-04-08T07:14:48.612Z,5.09
2023-04-08T07:17:22.380Z,4.97
2023-04-08T07:20:01.505Z,5.23
2023-04-08T07:22:42.669Z,5.28
2023-04-08T07:25:12.736Z,4.99
2023-04-08T07:27:43.574Z,4.92
2023-04-08T07:30:22.328Z,5.10
2023-04-08T07:32:57.059Z,4.87
2023-04-08T07:35:32.192Z,4.75
2023-04-08T07:38:09.610Z,5.06
2023-04-08T07:40:41.485Z,5.07
2023-04-08T07:43:17.280Z,4.75
2023-04-08T07:45:46.112Z,5.07
2023-04-08T07:48:30.019Z,5.21
2023-04-08T07:51:09.860Z,5.01
2023-04-08T07:53:42.704Z,5.00
2023-04-08T07:56:13.837Z,5.07
2023-04-08T07:58:44.084Z,4.74
2023-04-08T08:01:22.350Z,5.01
2023-04-08T08:04:09.105Z,4.84
2023-04-08T08:06:45.610Z,4.95
2023-04-08T08:09:22.642Z,4.96
2023-04-08T08:11:54.936Z,5.02
2023-04-08T08:14:25.608Z,5.13
2023-04-08T08:16:54.840Z,5.05
2023-04-08T08:19:28.886Z,5.01
2023-04-08T08:22:05.032Z,5.06
2023-04-08T08:24:41.330Z,4.83
2023-04-08T08:27:23.237Z,4.96
2023-04-08T08:29:53.319Z,5.19
2023-04-08T08:32:21.629Z,5.17
2023-04-08T08:34:52.372Z,5.00
2023-04-08T08:37:22.670Z,5.06
2023-04-08T08:39:59.232Z,5.18
2023-04-08T08:42:36.448Z,5.25
2023-04-08T08:45:17.754Z,5.37
2023-04-08T08:47:50.364Z,5.17
2023-04-08T08:50:25.542Z,5.08
2023-04-08T08:52:57.569Z,4.96
2023-04-08T08:55:44.812Z,5.06
2023-04-08T08:58:20.617Z,5.11
2023-04-08T09:00:57.193Z,5.00
2023-04-08T09:03:31.363Z,4.78
2023-04-08T09:06:06.466Z,4.90
2023-04-08T09:08:44.803Z,4.65
2023-04-08T09:11:16.368Z,4.95
2023-04-08T09:13:46.855Z,4.99
2023-04-08T09:16:18.557Z,4.96
2023-04-08T09:18:58.829Z,4.86
2023-04-08T09:21:34.916Z,5.20
2023-04-08T09:24:05.115Z,5.28
2023-04-08T09:26:41.210Z,5.40
2023-04-08T09:29:25.469Z,5.33
2023-04-08T09:31:58.054Z,5.04
2023-04-08T09:34:32.545Z,5.09
2023-04-08T09:37:05.553Z,5.00
2023-04-08T09:39:42.284Z,4.95
2023-04-08T09:42:20.616Z,5.10
2023-04-08T09:44:51.303Z,4.96
2023-04-08T09:47:22.191Z,5.05
2023-04-08T09:49:53.930Z,5.03
2023-04-08T09:52:36.198Z,5.22
2023-04-08T09:55:07.085Z,5.44
2023-04-08T09:57:45.222Z,5.43
2023-04-08T10:00:17.599Z,5.53
2023-04-08T10:02:57.539Z,5.75
2023-04-08T10:05:27.221Z,5.86
2023-04-08T10:08:04.122Z,5.98
2023-04-08T10:10:41.658Z,5.85
2023-04-08T10:13:12.542Z,5.52
2023-04-08T10:15:43.343Z,5.43
2023-04-08T10:18:42.485Z,5.69
2023-04-08T10:21:35.580Z,5.63
2023-04-08T10:24:10.671Z,5.55
2023-04-08T10:26:47.904Z,5.57
2023-04-08T10:29:37.843Z,5.37
2023-04-08T10:32:07.098Z,5.53
2023-04-08T10:34:37.871Z,5.67
2023-04-08T10:37:11.124Z,5.46
2023-04-08T10:39:53.239Z,5.68
2023-04-08T10:42:31.242Z,5.59
2023-04-08T10:45:04.808Z,5.37
2023-04-08T10:47:37.961Z,5.54
2023-04-08T10:50:18.265Z,5.46
2023-04-08T10:52:53.416Z,5.52
2023-04-08T10:55:34.667Z,5.50
2023-04-08T10:58:10.563Z,5.51
2023-04-08T11:00:42.242Z,5.33
2023-04-08T11:03:13.728Z,5.52
2023-04-08T11:05:45.353Z,5.43
2023-04-08T11:08:16.168Z,5.58
2023-04-08T11:10:57.000Z,5.70
2023-04-08T11:13:26.039Z,5.64
2023-04-08T11:16:16.596Z,5.64
2023-04-08T11:18:48.370Z,5.93
2023-04-08T11:21:30.569Z,5.77
2023-04-08T11:23:59.523Z,5.80
2023-04-08T11:26:42.191Z,5.94
2023-04-08T11:29:20.871Z,5.81
2023-04-08T11:31:51.940Z,5.72
2023-04-08T11:34:30.223Z,6.01
2023-04-08T11:37:02.517Z,6.06
2023-04-08T11:39:30.915Z,6.12
2023-04-08T11:42:04.142Z,6.37
2023-04-08T11:44:38.158Z,6.12
2023-04-08T11:47:07.834Z,6.14
2023-04-08T11:49:48.397Z,6.04
2023-04-08T11:52:20.109Z,6.26
2023-04-08T11:54:50.323Z,6.44
2023-04-08T11:57:36.531Z,6.56
2023-04-08T12:00:14.048Z,6.27
2023-04-08T12:02:50.822Z,6.33
2023-04-08T12:05:22.674Z,6.33
2023-04-08T12:08:00.582Z,6.34
2023-04-08T12:10:44.114Z,6.14
2023-04-08T12:13:25.339Z,5.98
2023-04-08T12:15:56.488Z,6.22
2023-04-08T12:18:27.247Z,6.13
2023-04-08T12:20:56.042Z,6.22
2023-04-08T12:23:26.595Z,6.24
2023-04-08T12:25:55.093Z,6.16
2023-04-08T12:28:27.588Z,6.28
2023-04-08T12:30:59.725Z,6.15
2023-04-08T12:33:28.157Z,6.12
2023-04-08T12:36:06.022Z,6.30
2023-04-08T12:38:39.989Z,6.15
2023-04-08T12:41:08.238Z,6.28
2023-04-08T12:43:40.294Z,6.47
2023-04-08T12:46:11.711Z,6.14
2023-04-08T12:48:47.367Z,6.30
2023-04-08T12:51:22.755Z,6.41
2023-04-08T12:53:51.076Z,6.51
2023-04-08T12:56:23.096Z,6.90
2023-04-08T12:58:59.410Z,6.63
2023-04-08T13:01:31.514Z,6.58
2023-04-08T13:04:11.237Z,6.63
2023-04-08T13:06:41.134Z,6.67
2023-04-08T13:09:10.229Z,6.80
2023-04-08T13:11:45.488Z,6.89
2023-04-08T13:14:20.622Z,6.60
2023-04-08T13:16:48.919Z,6.78
2023-04-08T13:19:21.686Z,6.80
2023-04-08T13:21:56.112Z,6.93
2023-04-08T13:24:27.136Z,7.08
2023-04-08T13:26:58.558Z,6.98
2023-04-08T13:29:31.478Z,7.17
2023-04-08T13:32:02.369Z,7.04
2023-04-08T13:34:31.088Z,7.26
2023-04-08T13:37:07.558Z,7.43
2023-04-08T13:39:36.196Z,7.37
2023-04-08T13:42:05.469Z,7.04
2023-04-08T13:44:40.475Z,6.98
2023-04-08T13:47:08.540Z,6.91
2023-04-08T13:49:39.691Z,6.88
2023-04-08T13:52:08.856Z,7.06
2023-04-08T13:54:37.539Z,7.28
2023-04-08T13:57:12.875Z,7.15
2023-04-08T13:59:46.210Z,6.96
2023-04-08T14:02:16.761Z,7.06
2023-04-08T14:04:50.862Z,7.00
2023-04-08T14:07:28.477Z,7.17
2023-04-08T14:09:57.296Z,7.31
2023-04-08T14:12:26.755Z,7.26
2023-04-08T14:14:58.680Z,7.43
2023-04-08T14:17:30.350Z,7.70
2023-04-08T14:20:01.198Z,7.51
2023-04-08T14:22:31.003Z,7.63
2023-04-08T14:25:01.429Z,7.31
2023-04-08T14:27:31.022Z,7.39
2023-04-08T14:30:01.379Z,7.16
2023-04-08T14:32:33.769Z,7.31
2023-04-08T14:35:04.449Z,7.12
2023-04-08T14:37:49.865Z,7.44
2023-04-08T14:40:23.049Z,7.16
2023-04-08T14:42:54.810Z,7.33
2023-04-08T14:45:24.679Z,7.23
2023-04-08T14:47:56.400Z,7.41
2023-04-08T14:50:29.925Z,7.45
2023-04-08T14:52:59.604Z,7.50
2023-04-08T14:55:28.858Z,7.41
2023-04-08T14:58:01.157Z,7.22
2023-04-08T15:00:33.839Z,7.52
2023-04-08T15:03:03.543Z,7.47
2023-04-08T15:05:36.556Z,7.57
2023-04-08T15:08:08.993Z,7.40
2023-04-08T15:10:37.016Z,7.40
2023-04-08T15:13:06.575Z,7.52
2023-04-08T15:15:42.483Z,7.22
2023-04-08T15:18:21.261Z,7.16
2023-04-08T15:20:52.914Z,7.35
2023-04-08T15:23:23.179Z,7.39
2023-04-08T15:25:53.356Z,7.36
2023-04-08T15:28:28.032Z,7.23
2023-04-08T15:31:00.020Z,7.15
2023-04-08T15:33:28.554Z,7.05
2023-04-08T15:36:05.213Z,7.12
2023-04-08T15:38:34.617Z,6.90
2023-04-08T15:41:02.976Z,6.94
2023-04-08T15:43:32.067Z,7.50
2023-04-08T15:46:04.828Z,7.17
2023-04-08T15:48:35.438Z,6.90
2023-04-08T15:51:08.614Z,7.22
2023-04-08T15:53:37.674Z,6.94
2023-04-08T15:56:10.736Z,7.11
2023-04-08T15:58:42.654Z,7.05
2023-04-08T16:01:17.358Z,7.00
2023-04-08T16:03:46.308Z,7.06
2023-04-08T16:06:20.150Z,6.99
2023-04-08T16:08:54.639Z,6.99
2023-04-08T16:11:24.302Z,7.00
2023-04-08T16:13:53.571Z,7.00
2023-04-08T16:16:26.860Z,7.13
2023-04-08T16:19:00.224Z,6.91
2023-04-08T16:21:30.609Z,6.95
2023-04-08T16:24:07.642Z,6.98
2023-04-08T16:26:38.736Z,7.11
2023-04-08T16:29:13.270Z,7.08
2023-04-08T16:31:53.201Z,7.06
2023-04-08T16:34:27.213Z,7.01
2023-04-08T16:36:55.590Z,7.09
2023-04-08T16:39:32.655Z,7.01
2023-04-08T16:42:01.995Z,7.07
2023-04-08T16:44:32.604Z,6.94
2023-04-08T16:47:08.101Z,7.19
2023-04-08T16:49:37.207Z,6.98
2023-04-08T16:52:06.586Z,7.15
2023-04-08T16:54:36.684Z,7.25
2023-04-08T16:57:07.993Z,6.95
2023-04-08T16:59:38.604Z,6.92
2023-04-08T17:02:16.447Z,6.83
2023-04-08T17:04:45.527Z,7.07
2023-04-08T17:07:23.081Z,6.79
2023-04-08T17:09:53.108Z,6.78
2023-04-08T17:12:22.737Z,6.94
2023-04-08T17:14:51.718Z,6.61
2023-04-08T17:17:26.741Z,6.79
2023-04-08T17:19:58.133Z,6.65
2023-04-08T17:22:29.602Z,6.65
2023-04-08T17:25:01.616Z,6.60
2023-04-08T17:27:31.228Z,6.55
2023-04-08T17:30:01.437Z,6.60
2023-04-08T17:32:32.201Z,6.54
2023-04-08T17:35:03.425Z,6.68
2023-04-08T17:37:34.776Z,6.74
2023-04-08T17:40:05.753Z,6.61
2023-04-08T17:42:35.276Z,6.58
2023-04-08T17:45:07.061Z,6.42
2023-04-08T17:47:41.317Z,6.43
2023-04-08T17:50:14.678Z,6.41
2023-04-08T17:52:49.766Z,6.48
2023-04-08T17:55:20.224Z,6.54
2023-04-08T17:57:50.555Z,6.59
2023-04-08T18:00:22.506Z,6.68
2023-04-08T18:02:53.471Z,6.49
2023-04-08T18:05:23.297Z,6.57
2023-04-08T18:07:52.748Z,6.56
2023-04-08T18:10:30.756Z,6.53
2023-04-08T18:13:11.363Z,6.69
2023-04-08T18:15:41.368Z,6.55
2023-04-08T18:18:12.397Z,6.78
2023-04-08T18:20:44.718Z,6.62
2023-04-08T18:23:14.262Z,6.53
2023-04-08T18:25:50.701Z,6.55
2023-04-08T18:28:26.470Z,6.67
2023-04-08T18:30:57.739Z,6.63
2023-04-08T18:33:34.260Z,6.60
2023-04-08T18:36:10.671Z,6.57
2023-04-08T18:38:42.245Z,6.64
2023-04-08T18:41:25.489Z,6.66
2023-04-08T18:43:54.831Z,6.39
2023-04-08T18:46:24.632Z,6.38
2023-04-08T18:48:58.660Z,6.42
2023-04-08T18:51:27.797Z,6.41
2023-04-08T18:54:00.592Z,6.57
2023-04-08T18:56:38.281Z,6.55
2023-04-08T18:59:07.946Z,6.64
2023-04-08T19:01:37.493Z,6.64
2023-04-08T19:04:24.654Z,6.91
2023-04-08T19:06:53.362Z,6.68
2023-04-08T19:09:25.708Z,6.67
2023-04-08T19:11:54.407Z,6.60
2023-04-08T19:14:25.522Z,6.40
2023-04-08T19:16:56.522Z,6.45
2023-04-08T19:19:30.216Z,6.48
2023-04-08T19:22:07.744Z,6.55
2023-04-08T19:24:39.169Z,6.79
2023-04-08T19:27:09.806Z,6.59
2023-04-08T19:29:38.250Z,6.78
2023-04-08T19:32:06.788Z,6.43
2023-04-08T19:34:40.547Z,6.39
2023-04-08T19:37:10.659Z,6.40
2023-04-08T19:39:42.434Z,6.22
2023-04-08T19:42:14.124Z,6.34
2023-04-08T19:44:42.419Z,6.35
2023-04-08T19:47:19.944Z,6.42
2023-04-08T19:49:54.540Z,6.29
2023-04-08T19:52:25.571Z,6.28
2023-04-08T19:54:53.750Z,6.42
2023-04-08T19:57:23.097Z,6.37
2023-04-08T19:59:56.378Z,6.30
2023-04-08T20:02:25.562Z,6.07
2023-04-08T20:04:56.326Z,6.19
2023-04-08T20:07:24.921Z,6.15
2023-04-08T20:09:54.622Z,5.87
2023-04-08T20:12:24.911Z,6.16
2023-04-08T20:15:01.722Z,5.99
2023-04-08T20:17:33.161Z,6.11
2023-04-08T20:20:17.425Z,6.00
2023-04-08T20:22:47.886Z,6.19
2023-04-08T20:25:21.794Z,6.23
2023-04-08T20:27:54.019Z,6.10
2023-04-08T20:30:23.237Z,6.02
2023-04-08T20:32:52.361Z,6.26
2023-04-08T20:35:23.237Z,6.39
2023-04-08T20:37:54.856Z,6.18
2023-04-08T20:40:26.026Z,6.15
2023-04-08T20:42:55.833Z,6.12
2023-04-08T20:45:27.266Z,6.13
2023-04-08T20:47:57.958Z,6.21
2023-04-08T20:50:41.575Z,6.25
2023-04-08T20:53:12.923Z,6.35
2023-04-08T20:55:42.705Z,6.33
2023-04-08T20:58:23.106Z,6.15
2023-04-08T21:01:01.035Z,6.15
2023-04-08T21:03:32.993Z,6.15
2023-04-08T21:06:07.707Z,6.25
2023-04-08T21:08:38.708Z,6.24
2023-04-08T21:11:07.865Z,6.36
2023-04-08T21:13:39.049Z,6.31
2023-04-08T21:16:09.251Z,6.42
2023-04-08T21:18:39.578Z,6.32
2023-04-08T21:21:20.960Z,6.48
2023-04-08T21:23:52.207Z,6.25
2023-04-08T21:26:22.259Z,6.14
2023-04-08T21:28:53.384Z,6.13
2023-04-08T21:31:30.628Z,6.29
2023-04-08T21:34:02.577Z,6.22
2023-04-08T21:36:33.210Z,6.25
2023-04-08T21:39:03.730Z,6.17
2023-04-08T21:41:38.820Z,6.13
2023-04-08T21:44:10.256Z,6.43
2023-04-08T21:46:39.817Z,6.35
2023-04-08T21:49:08.084Z,6.09
2023-04-08T21:51:38.989Z,6.13
2023-04-08T21:54:15.354Z,6.19
2023-04-08T21:56:47.267Z,6.10
2023-04-08T21:59:20.102Z,6.16
2023-04-08T22:01:58.273Z,6.02
2023-04-08T22:04:30.022Z,6.10
2023-04-08T22:07:11.636Z,6.01
2023-04-08T22:09:43.585Z,6.11
2023-04-08T22:12:26.990Z,6.19
2023-04-08T22:14:57.749Z,6.00
2023-04-08T22:17:28.547Z,5.88
2023-04-08T22:20:04.933Z,5.93
2023-04-08T22:22:37.196Z,5.97
2023-04-08T22:25:15.373Z,5.94
2023-04-08T22:27:43.647Z,5.99
2023-04-08T22:30:17.009Z,5.97
2023-04-08T22:32:45.812Z,6.01
2023-04-08T22:35:19.848Z,5.93
2023-04-08T22:37:52.488Z,5.97
2023-04-08T22:40:28.500Z,6.08
2023-04-08T22:42:57.573Z,5.87
2023-04-08T22:45:29.032Z,6.02
2023-04-08T22:47:59.853Z,6.17
2023-04-08T22:50:37.191Z,5.94
2023-04-08T22:53:07.289Z,5.93
2023-04-08T22:55:44.072Z,6.14
2023-04-08T22:58:26.049Z,6.29
2023-04-08T23:00:55.890Z,6.19
2023-04-08T23:03:29.373Z,6.06
2023-04-08T23:05:58.515Z,6.30
2023-04-08T23:08:28.093Z,6.57
2023-04-08T23:11:11.020Z,6.31
2023-04-08T23:13:39.929Z,6.48
2023-04-08T23:16:10.707Z,6.42
2023-04-08T23:18:40.413Z,6.35
2023-04-08T23:21:10.738Z,6.57
2023-04-08T23:23:47.789Z,6.27
2023-04-08T23:26:21.946Z,6.26
2023-04-08T23:28:54.304Z,6.31
2023-04-08T23:31:26.204Z,6.31
2023-04-08T23:33:56.806Z,6.24
2023-04-08T23:36:28.361Z,6.49
2023-04-08T23:39:00.253Z,6.39
2023-04-08T23:41:34.238Z,6.43
2023-04-08T23:44:06.672Z,6.28
2023-04-08T23:46:35.923Z,6.14
2023-04-08T23:49:04.702Z,6.21
2023-04-08T23:51:34.331Z,6.13
2023-04-08T23:54:04.477Z,6.28
2023-04-08T23:56:33.822Z,6.00
2023-04-08T23:59:16.645Z,6.33
